createdAt,value
2019-04-18T00:02:19.400Z,12.50
2019-04-18T00:05:05.451Z,12.40
2019-04-18T00:07:34.815Z,12.40
2019-04-18T00:10:06.830Z,12.30
2019-04-18T00:12:36.190Z,12.30
2019-04-18T00:15:05.818Z,12.30
2019-04-18T00:17:35.095Z,12.20
2019-04-18T00:20:06.974Z,12.10
2019-04-18T00:22:36.567Z,12.10
2019-04-18T00:25:08.415Z,12.10
2019-04-18T00:27:38.143Z,12.10
2019-04-18T00:30:08.064Z,12.10
2019-04-18T00:32:37.982Z,12.10
2019-04-18T00:35:11.336Z,12.10
2019-04-18T00:37:38.625Z,12.00
2019-04-18T00:40:11.789Z,12.00
2019-04-18T00:42:39.247Z,11.90
2019-04-18T00:45:10.487Z,11.90
2019-04-18T00:47:39.655Z,11.90
2019-04-18T00:50:09.582Z,11.90
2019-04-18T00:52:38.856Z,11.80
2019-04-18T00:55:08.580Z,11.80
2019-04-18T00:57:37.850Z,11.80
2019-04-18T01:00:13.758Z,11.80
2019-04-18T01:02:41.691Z,11.80
2019-04-18T01:05:12.091Z,11.80
2019-04-18T01:07:41.566Z,11.70
2019-04-18T01:10:10.989Z,11.70
2019-04-18T01:12:40.608Z,11.70
2019-04-18T01:15:11.233Z,11.70
2019-04-18T01:17:40.851Z,11.80
2019-04-18T01:20:10.586Z,11.80
2019-04-18T01:22:39.858Z,11.90
2019-04-18T01:25:09.291Z,11.90
2019-04-18T01:27:38.578Z,11.90
2019-04-18T01:30:13.679Z,11.90
2019-04-18T01:32:42.979Z,11.90
2019-04-18T01:35:12.510Z,12.00
2019-04-18T01:37:41.806Z,12.00
2019-04-18T01:40:12.045Z,11.90
2019-04-18T01:42:59.606Z,12.00
2019-04-18T01:45:33.595Z,12.00
2019-04-18T01:48:05.134Z,12.10
2019-04-18T01:50:34.995Z,12.10
2019-04-18T01:53:04.283Z,12.10
2019-04-18T01:55:33.571Z,12.20
2019-04-18T01:58:03.523Z,12.20
2019-04-18T02:00:32.862Z,12.20
2019-04-18T02:03:02.231Z,12.20
2019-04-18T02:05:32.309Z,12.20
2019-04-18T02:08:02.243Z,12.20
2019-04-18T02:10:31.672Z,12.30
2019-04-18T02:13:00.961Z,12.30
2019-04-18T02:15:32.263Z,12.20
2019-04-18T02:18:01.240Z,12.30
2019-04-18T02:20:34.683Z,12.30
2019-04-18T02:23:04.665Z,12.40
2019-04-18T02:25:41.760Z,12.40
2019-04-18T02:28:05.551Z,12.40
2019-04-18T02:30:35.063Z,12.40
2019-04-18T02:33:06.957Z,12.40
2019-04-18T02:35:36.317Z,12.40
2019-04-18T02:38:06.172Z,12.40
2019-04-18T02:40:35.843Z,12.40
2019-04-18T02:43:08.406Z,12.40
2019-04-18T02:45:37.687Z,12.40
2019-04-18T02:48:07.479Z,12.40
2019-04-18T02:50:38.400Z,12.30
2019-04-18T02:53:08.855Z,12.30
2019-04-18T02:55:39.776Z,12.30
2019-04-18T02:58:11.003Z,12.30
2019-04-18T03:00:48.231Z,12.30
2019-04-18T03:03:21.838Z,12.20
2019-04-18T03:05:51.134Z,12.20
2019-04-18T03:08:20.415Z,12.20
2019-04-18T03:10:49.709Z,12.30
2019-04-18T03:13:18.992Z,12.20
2019-04-18T03:15:51.105Z,12.20
2019-04-18T03:18:19.323Z,12.10
2019-04-18T03:20:51.715Z,12.00
2019-04-18T03:23:19.587Z,12.00
2019-04-18T03:25:51.964Z,12.00
2019-04-18T03:28:19.846Z,12.00
2019-04-18T03:30:49.147Z,11.90
2019-04-18T03:33:23.232Z,11.90
2019-04-18T03:35:53.174Z,11.90
2019-04-18T03:38:20.599Z,11.90
2019-04-18T03:40:49.906Z,11.90
2019-04-18T03:43:19.179Z,11.80
2019-04-18T03:45:56.416Z,11.80
2019-04-18T03:48:25.855Z,11.80
2019-04-18T03:50:55.146Z,11.70
2019-04-18T03:53:24.422Z,11.60
2019-04-18T03:55:56.099Z,11.60
2019-04-18T03:58:24.710Z,11.60
2019-04-18T04:00:57.606Z,11.50
2019-04-18T04:03:25.274Z,11.50
2019-04-18T04:06:04.290Z,11.40
2019-04-18T04:08:30.277Z,11.40
2019-04-18T04:10:56.870Z,11.40
2019-04-18T04:13:26.155Z,11.40
2019-04-18T04:15:55.815Z,11.40
2019-04-18T04:18:38.818Z,11.40
2019-04-18T04:21:07.503Z,11.40
2019-04-18T04:23:36.983Z,11.30
2019-04-18T04:26:06.262Z,11.30
2019-04-18T04:28:35.559Z,11.30
2019-04-18T04:31:05.118Z,11.30
2019-04-18T04:33:34.990Z,11.30
2019-04-18T04:36:19.755Z,11.30
2019-04-18T04:38:35.389Z,11.30
2019-04-18T04:41:04.776Z,11.20
2019-04-18T04:43:34.309Z,11.20
2019-04-18T04:46:06.275Z,11.20
2019-04-18T04:48:36.223Z,11.20
2019-04-18T04:51:08.691Z,11.20
2019-04-18T04:53:55.371Z,11.20
2019-04-18T04:56:42.716Z,11.20
2019-04-18T04:59:16.818Z,11.10
2019-04-18T05:01:46.413Z,11.10
2019-04-18T05:04:16.151Z,11.00
2019-04-18T05:06:45.528Z,11.10
2019-04-18T05:09:14.933Z,11.00
2019-04-18T05:11:44.200Z,11.00
2019-04-18T05:14:13.474Z,11.10
2019-04-18T05:16:53.243Z,11.10
2019-04-18T05:19:27.804Z,11.00
2019-04-18T05:21:57.096Z,11.00
2019-04-18T05:24:26.677Z,11.10
2019-04-18T05:26:56.152Z,11.10
2019-04-18T05:29:25.715Z,11.10
2019-04-18T05:31:55.283Z,11.40
2019-04-18T05:34:24.759Z,11.60
2019-04-18T05:36:56.649Z,11.90
2019-04-18T05:39:30.128Z,12.10
2019-04-18T05:41:57.043Z,12.30
2019-04-18T05:44:28.230Z,12.40
2019-04-18T05:47:02.098Z,12.50
2019-04-18T05:49:36.704Z,12.60
2019-04-18T05:52:26.458Z,12.70
2019-04-18T05:54:55.446Z,12.70
2019-04-18T05:57:25.101Z,12.80
2019-04-18T06:00:12.529Z,12.90
2019-04-18T06:02:46.440Z,13.00
2019-04-18T06:05:34.972Z,13.00
2019-04-18T06:08:09.742Z,12.90
2019-04-18T06:10:39.097Z,13.00
2019-04-18T06:13:08.975Z,13.00
2019-04-18T06:15:39.979Z,13.00
2019-04-18T06:18:19.882Z,13.10
2019-04-18T06:20:49.170Z,13.30
2019-04-18T06:23:18.450Z,13.40
2019-04-18T06:25:52.242Z,13.50
2019-04-18T06:28:39.551Z,13.50
2019-04-18T06:31:13.169Z,13.60
2019-04-18T06:33:46.335Z,13.80
2019-04-18T06:36:19.247Z,13.90
2019-04-18T06:38:48.059Z,13.90
2019-04-18T06:41:18.522Z,14.00
2019-04-18T06:43:47.893Z,13.90
2019-04-18T06:46:22.495Z,14.10
2019-04-18T06:48:48.142Z,14.10
2019-04-18T06:51:17.829Z,14.20
2019-04-18T06:53:47.199Z,14.30
2019-04-18T06:56:18.493Z,14.40
2019-04-18T06:58:49.635Z,14.40
2019-04-18T07:01:18.456Z,14.40
2019-04-18T07:03:47.740Z,14.50
2019-04-18T07:06:31.394Z,14.50
2019-04-18T07:08:49.907Z,14.50
2019-04-18T07:11:20.826Z,14.60
2019-04-18T07:14:00.460Z,14.70
2019-04-18T07:16:29.736Z,14.80
2019-04-18T07:19:00.475Z,14.80
2019-04-18T07:21:36.866Z,14.80
2019-04-18T07:24:05.740Z,15.00
2019-04-18T07:26:35.353Z,15.10
2019-04-18T07:29:04.766Z,15.10
2019-04-18T07:31:34.040Z,15.10
2019-04-18T07:34:03.336Z,15.10
2019-04-18T07:36:35.927Z,15.30
2019-04-18T07:39:05.130Z,15.40
2019-04-18T07:41:35.394Z,15.60
2019-04-18T07:44:07.823Z,15.80
2019-04-18T07:46:38.055Z,15.90
2019-04-18T07:49:08.153Z,16.00
2019-04-18T07:51:37.507Z,16.20
2019-04-18T07:54:07.069Z,16.40
2019-04-18T07:56:38.230Z,16.70
2019-04-18T07:59:14.884Z,16.70
2019-04-18T08:01:38.868Z,16.80
2019-04-18T08:04:13.713Z,16.80
2019-04-18T08:06:39.124Z,16.80
2019-04-18T08:09:08.695Z,16.90
2019-04-18T08:11:38.024Z,17.20
2019-04-18T08:14:07.294Z,17.30
2019-04-18T08:16:38.229Z,17.30
2019-04-18T08:19:07.566Z,17.50
2019-04-18T08:21:36.860Z,17.50
2019-04-18T08:24:07.963Z,17.90
2019-04-18T08:26:37.114Z,18.00
2019-04-18T08:29:22.824Z,18.10
2019-04-18T08:31:37.699Z,18.20
2019-04-18T08:34:07.665Z,18.20
2019-04-18T08:36:37.072Z,18.00
2019-04-18T08:39:15.318Z,17.80
2019-04-18T08:41:46.625Z,17.60
2019-04-18T08:44:22.532Z,17.50
2019-04-18T08:46:48.535Z,17.40
2019-04-18T08:49:24.896Z,17.70
2019-04-18T08:52:12.255Z,18.00
2019-04-18T08:54:45.919Z,18.20
2019-04-18T08:57:25.058Z,18.70
2019-04-18T08:59:54.056Z,19.00
2019-04-18T09:02:25.031Z,19.40
2019-04-18T09:04:55.001Z,19.70
2019-04-18T09:07:32.560Z,19.90
2019-04-18T09:09:56.268Z,19.70
2019-04-18T09:12:25.790Z,19.90
2019-04-18T09:14:56.061Z,20.10
2019-04-18T09:17:25.606Z,20.00
2019-04-18T09:20:09.383Z,19.90
2019-04-18T09:22:30.928Z,19.80
2019-04-18T09:24:57.554Z,20.00
2019-04-18T09:27:26.971Z,19.90
2019-04-18T09:29:56.265Z,20.10
2019-04-18T09:32:25.563Z,20.30
2019-04-18T09:34:54.855Z,20.20
2019-04-18T09:37:24.142Z,20.50
2019-04-18T09:39:53.423Z,20.90
2019-04-18T09:42:25.836Z,20.80
2019-04-18T09:44:54.781Z,20.80
2019-04-18T09:47:24.312Z,20.90
2019-04-18T09:49:53.853Z,20.90
2019-04-18T09:52:23.143Z,21.00
2019-04-18T09:54:52.414Z,21.20
2019-04-18T09:57:22.307Z,21.20
2019-04-18T09:59:51.655Z,21.20
2019-04-18T10:02:20.954Z,21.20
2019-04-18T10:04:50.774Z,21.30
2019-04-18T10:07:20.230Z,21.50
2019-04-18T10:09:49.523Z,21.60
2019-04-18T10:12:19.228Z,21.60
2019-04-18T10:14:48.907Z,22.00
2019-04-18T10:17:18.188Z,22.20
2019-04-18T10:19:49.104Z,22.30
2019-04-18T10:22:20.301Z,22.60
2019-04-18T10:24:53.710Z,22.90
2019-04-18T10:27:24.636Z,22.90
2019-04-18T10:29:58.223Z,22.80
2019-04-18T10:32:27.491Z,22.80
2019-04-18T10:35:00.280Z,22.90
2019-04-18T10:37:27.757Z,22.70
2019-04-18T10:39:57.043Z,22.70
2019-04-18T10:42:26.327Z,22.80
2019-04-18T10:44:55.603Z,22.90
2019-04-18T10:47:26.531Z,22.90
2019-04-18T10:49:56.156Z,22.90
2019-04-18T10:52:25.730Z,23.00
2019-04-18T10:54:55.336Z,23.20
2019-04-18T10:57:24.624Z,23.50
2019-04-18T10:59:53.902Z,23.80
2019-04-18T11:02:23.200Z,23.70
2019-04-18T11:04:52.470Z,23.40
2019-04-18T11:07:21.759Z,23.30
2019-04-18T11:09:51.064Z,23.20
2019-04-18T11:12:20.356Z,23.30
2019-04-18T11:14:49.632Z,23.50
2019-04-18T11:17:21.253Z,23.80
2019-04-18T11:19:49.879Z,23.80
2019-04-18T11:22:19.298Z,23.70
2019-04-18T11:24:49.134Z,23.80
2019-04-18T11:27:18.464Z,23.70
2019-04-18T11:29:47.736Z,23.70
2019-04-18T11:32:17.017Z,23.70
2019-04-18T11:34:46.603Z,23.90
2019-04-18T11:37:15.875Z,24.20
2019-04-18T11:39:45.162Z,24.20
2019-04-18T11:42:14.599Z,24.50
2019-04-18T11:44:44.319Z,24.50
2019-04-18T11:47:13.592Z,24.50
2019-04-18T11:49:42.899Z,24.40
2019-04-18T11:52:12.166Z,24.70
2019-04-18T11:54:41.439Z,24.80
2019-04-18T11:57:10.731Z,24.60
2019-04-18T11:59:44.578Z,24.60
2019-04-18T12:02:14.339Z,25.10
2019-04-18T12:04:48.660Z,25.30
2019-04-18T12:07:18.392Z,25.40
2019-04-18T12:09:47.975Z,25.00
2019-04-18T12:12:17.279Z,24.90
2019-04-18T12:14:46.546Z,25.00
2019-04-18T12:17:15.827Z,25.00
2019-04-18T12:19:45.108Z,25.20
2019-04-18T12:22:14.571Z,25.50
2019-04-18T12:24:43.911Z,25.60
2019-04-18T12:27:13.192Z,25.70
2019-04-18T12:29:42.506Z,25.80
2019-04-18T12:32:11.847Z,25.80
2019-04-18T12:34:41.151Z,25.90
2019-04-18T12:37:10.690Z,25.70
2019-04-18T12:39:39.963Z,25.40
2019-04-18T12:42:09.250Z,25.50
2019-04-18T12:44:38.534Z,25.80
2019-04-18T12:47:07.824Z,26.20
2019-04-18T12:49:37.195Z,26.10
2019-04-18T12:52:13.219Z,26.20
2019-04-18T12:54:37.745Z,26.10
2019-04-18T12:57:07.025Z,26.20
2019-04-18T12:59:36.315Z,26.30
2019-04-18T13:02:05.659Z,26.20
2019-04-18T13:04:34.950Z,26.20
2019-04-18T13:07:05.363Z,26.40
2019-04-18T13:09:36.301Z,26.80
2019-04-18T13:12:19.748Z,26.40
2019-04-18T13:14:54.049Z,26.30
2019-04-18T13:17:35.858Z,26.30
2019-04-18T13:20:09.010Z,26.60
2019-04-18T13:22:38.287Z,26.60
2019-04-18T13:25:08.237Z,26.90
2019-04-18T13:27:37.623Z,26.90
2019-04-18T13:30:08.815Z,27.00
2019-04-18T13:32:38.420Z,27.60
2019-04-18T13:35:07.758Z,28.00
2019-04-18T13:37:37.078Z,27.80
2019-04-18T13:40:08.952Z,27.50
2019-04-18T13:42:38.601Z,27.40
2019-04-18T13:45:08.406Z,27.10
2019-04-18T13:47:37.694Z,26.80
2019-04-18T13:50:07.396Z,26.80
2019-04-18T13:52:38.282Z,27.00
2019-04-18T13:55:08.886Z,27.10
2019-04-18T13:57:38.170Z,27.10
2019-04-18T14:00:09.197Z,27.20
2019-04-18T14:02:38.730Z,27.20
2019-04-18T14:05:08.718Z,27.40
2019-04-18T14:07:38.100Z,27.40
2019-04-18T14:10:08.215Z,27.50
2019-04-18T14:12:37.779Z,27.20
2019-04-18T14:15:08.394Z,27.10
2019-04-18T14:17:38.018Z,27.10
2019-04-18T14:20:07.779Z,26.70
2019-04-18T14:22:38.953Z,26.70
2019-04-18T14:25:09.301Z,26.80
2019-04-18T14:27:38.903Z,26.80
2019-04-18T14:30:09.326Z,27.10
2019-04-18T14:32:38.954Z,27.20
2019-04-18T14:35:08.660Z,27.10
2019-04-18T14:37:37.955Z,27.00
2019-04-18T14:40:07.772Z,26.80
2019-04-18T14:42:40.298Z,26.70
2019-04-18T14:45:08.200Z,26.50
2019-04-18T14:47:37.555Z,26.40
2019-04-18T14:50:07.482Z,26.40
2019-04-18T14:52:36.755Z,26.40
2019-04-18T14:55:06.969Z,26.40
2019-04-18T14:57:36.250Z,26.30
2019-04-18T15:00:13.327Z,26.50
2019-04-18T15:02:49.331Z,26.80
2019-04-18T15:05:16.846Z,27.20
2019-04-18T15:07:46.133Z,26.90
2019-04-18T15:10:17.419Z,27.10
2019-04-18T15:12:47.003Z,27.30
2019-04-18T15:15:17.039Z,27.40
2019-04-18T15:17:46.381Z,27.30
2019-04-18T15:20:17.675Z,27.00
2019-04-18T15:22:47.279Z,26.80
2019-04-18T15:25:16.916Z,26.80
2019-04-18T15:27:46.503Z,26.80
2019-04-18T15:30:17.430Z,26.90
2019-04-18T15:32:46.711Z,27.00
2019-04-18T15:35:16.522Z,26.80
2019-04-18T15:37:45.818Z,26.90
2019-04-18T15:40:20.794Z,26.60
2019-04-18T15:42:50.382Z,26.60
2019-04-18T15:45:22.230Z,26.60
2019-04-18T15:47:51.606Z,26.80
2019-04-18T15:50:21.041Z,26.90
2019-04-18T15:52:50.326Z,26.80
2019-04-18T15:55:19.603Z,26.30
2019-04-18T15:57:48.891Z,26.00
2019-04-18T16:00:29.910Z,25.90
2019-04-18T16:02:59.539Z,25.70
2019-04-18T16:05:30.786Z,25.60
2019-04-18T16:08:03.964Z,25.50
2019-04-18T16:10:31.482Z,25.40
2019-04-18T16:13:00.953Z,25.40
2019-04-18T16:15:30.462Z,25.40
2019-04-18T16:17:59.763Z,25.50
2019-04-18T16:20:29.595Z,25.20
2019-04-18T16:22:58.971Z,25.10
2019-04-18T16:25:28.327Z,25.00
2019-04-18T16:27:57.615Z,24.90
2019-04-18T16:30:28.887Z,24.90
2019-04-18T16:32:58.399Z,24.80
2019-04-18T16:35:28.216Z,24.50
2019-04-18T16:37:57.605Z,24.30
2019-04-18T16:40:27.143Z,24.00
2019-04-18T16:42:57.063Z,23.80
2019-04-18T16:45:26.405Z,23.70
2019-04-18T16:47:55.828Z,23.60
2019-04-18T16:50:25.743Z,23.60
2019-04-18T16:52:55.023Z,23.40
2019-04-18T16:55:24.306Z,23.30
2019-04-18T16:57:53.884Z,23.30
2019-04-18T17:00:26.228Z,23.20
2019-04-18T17:02:57.692Z,23.20
2019-04-18T17:05:26.622Z,23.20
2019-04-18T17:07:56.004Z,23.00
2019-04-18T17:10:26.327Z,22.90
2019-04-18T17:12:55.747Z,22.80
2019-04-18T17:15:25.447Z,22.60
2019-04-18T17:17:54.886Z,22.60
2019-04-18T17:20:30.286Z,22.40
2019-04-18T17:23:02.646Z,22.20
2019-04-18T17:25:32.177Z,21.90
2019-04-18T17:28:01.462Z,21.80
2019-04-18T17:30:31.287Z,21.70
2019-04-18T17:33:00.575Z,21.70
2019-04-18T17:35:40.415Z,21.60
2019-04-18T17:38:30.129Z,21.50
2019-04-18T17:40:39.145Z,21.40
2019-04-18T17:43:21.424Z,21.20
2019-04-18T17:46:11.881Z,21.10
2019-04-18T17:48:42.004Z,21.00
2019-04-18T17:51:23.162Z,20.90
2019-04-18T17:53:52.703Z,20.80
2019-04-18T17:56:23.595Z,20.70
2019-04-18T17:58:44.908Z,20.70
2019-04-18T18:01:14.971Z,20.60
2019-04-18T18:03:49.921Z,20.50
2019-04-18T18:06:21.488Z,20.50
2019-04-18T18:08:56.486Z,20.40
2019-04-18T18:11:17.991Z,20.30
2019-04-18T18:13:48.539Z,20.20
2019-04-18T18:16:26.551Z,20.20
2019-04-18T18:18:53.416Z,20.10
2019-04-18T18:21:26.194Z,20.00
2019-04-18T18:23:58.349Z,19.90
2019-04-18T18:30:13.031Z,19.90
2019-04-18T18:32:45.022Z,19.80
2019-04-18T18:35:24.858Z,19.70
2019-04-18T18:37:54.749Z,19.70
2019-04-18T18:40:18.082Z,19.60
2019-04-18T18:42:47.665Z,19.50
2019-04-18T18:45:25.438Z,19.50
2019-04-18T18:47:52.210Z,19.50
2019-04-18T18:50:20.373Z,19.50
2019-04-18T18:52:49.700Z,19.40
2019-04-18T18:55:19.030Z,19.40
2019-04-18T18:57:51.874Z,19.40
2019-04-18T19:00:20.406Z,19.30
2019-04-18T19:02:54.332Z,19.20
2019-04-18T19:05:37.838Z,19.20
2019-04-18T19:08:06.962Z,19.10
2019-04-18T19:10:56.458Z,19.10
2019-04-18T19:13:23.020Z,19.10
2019-04-18T19:15:47.084Z,19.00
2019-04-18T19:17:56.384Z,19.00
2019-04-18T19:20:26.115Z,18.90
2019-04-18T19:22:55.547Z,18.90
2019-04-18T19:25:32.735Z,18.80
2019-04-18T19:28:10.014Z,18.70
2019-04-18T19:30:38.281Z,18.70
2019-04-18T19:33:04.517Z,18.60
2019-04-18T19:35:48.443Z,18.50
2019-04-18T19:38:25.966Z,18.20
2019-04-18T19:41:09.583Z,18.00
2019-04-18T19:43:08.914Z,17.80
2019-04-18T19:45:37.885Z,17.70
2019-04-18T19:48:06.968Z,17.60
2019-04-18T19:50:36.505Z,17.50
2019-04-18T19:53:10.643Z,17.40
2019-04-18T19:55:37.323Z,17.30
2019-04-18T19:58:06.909Z,17.10
2019-04-18T20:00:37.166Z,17.10
2019-04-18T20:03:07.187Z,17.00
2019-04-18T20:06:04.188Z,17.00
2019-04-18T20:08:18.280Z,16.90
2019-04-18T20:10:54.192Z,16.80
2019-04-18T20:13:17.111Z,16.80
2019-04-18T20:15:40.862Z,16.70
2019-04-18T20:18:11.324Z,16.70
2019-04-18T20:20:41.258Z,16.60
2019-04-18T20:23:10.912Z,16.50
2019-04-18T20:25:40.187Z,16.50
2019-04-18T20:28:13.959Z,16.40
2019-04-18T20:30:40.791Z,16.40
2019-04-18T20:33:17.949Z,16.30
2019-04-18T20:35:42.053Z,16.20
2019-04-18T20:38:18.177Z,16.20
2019-04-18T20:41:04.863Z,16.20
2019-04-18T20:43:23.364Z,16.20
2019-04-18T20:46:01.589Z,16.20
2019-04-18T20:48:28.681Z,16.10
2019-04-18T20:50:56.541Z,16.10
2019-04-18T20:53:43.991Z,16.00
2019-04-18T20:55:57.253Z,15.90
2019-04-18T20:58:25.918Z,15.90
2019-04-18T21:00:53.057Z,15.80
2019-04-18T21:03:26.383Z,15.80
2019-04-18T21:05:53.299Z,15.70
2019-04-18T21:08:33.442Z,15.70
2019-04-18T21:10:53.751Z,15.70
2019-04-18T21:13:23.365Z,15.60
2019-04-18T21:15:59.115Z,15.60
2019-04-18T21:18:24.267Z,15.60
2019-04-18T21:20:54.800Z,15.50
2019-04-18T21:23:24.612Z,15.40
2019-04-18T21:25:53.882Z,15.40
2019-04-18T21:28:27.955Z,15.40
2019-04-18T21:30:56.423Z,15.40
2019-04-18T21:33:32.179Z,15.40
2019-04-18T21:36:00.115Z,15.40
2019-04-18T21:38:37.990Z,15.30
2019-04-18T21:41:01.697Z,15.30
2019-04-18T21:43:30.576Z,15.20
2019-04-18T21:46:02.434Z,15.20
2019-04-18T21:49:02.367Z,15.20
2019-04-18T21:51:35.884Z,15.20
2019-04-18T21:54:04.623Z,15.10
2019-04-18T21:56:36.579Z,15.00
2019-04-18T21:59:09.943Z,15.00
2019-04-18T22:01:40.633Z,15.00
2019-04-18T22:04:09.282Z,15.00
2019-04-18T22:06:46.028Z,15.00
2019-04-18T22:09:11.834Z,14.90
2019-04-18T22:11:44.548Z,14.90
2019-04-18T22:14:13.085Z,15.00
2019-04-18T22:16:42.567Z,15.00
2019-04-18T22:19:11.842Z,14.90
2019-04-18T22:21:45.650Z,14.90
2019-04-18T22:24:15.139Z,14.90
2019-04-18T22:26:44.439Z,14.90
2019-04-18T22:29:16.617Z,14.90
2019-04-18T22:31:45.710Z,14.80
2019-04-18T22:34:22.163Z,14.80
2019-04-18T22:36:46.989Z,14.70
2019-04-18T22:39:25.531Z,14.80
2019-04-18T22:41:47.478Z,14.80
2019-04-18T22:44:20.187Z,14.80
2019-04-18T22:46:47.859Z,14.70
2019-04-18T22:49:22.421Z,14.80
2019-04-18T22:51:52.585Z,14.70
2019-04-18T22:54:27.603Z,14.70
2019-04-18T22:56:54.741Z,14.60
2019-04-18T22:59:24.159Z,14.60
2019-04-18T23:01:59.530Z,14.60
2019-04-18T23:04:24.750Z,14.60
2019-04-18T23:06:55.599Z,14.50
2019-04-18T23:09:33.266Z,14.50
2019-04-18T23:12:01.440Z,14.50
2019-04-18T23:14:27.286Z,14.40
2019-04-18T23:17:01.148Z,14.40
2019-04-18T23:19:28.777Z,14.40
2019-04-18T23:22:02.020Z,14.40
2019-04-18T23:24:35.987Z,14.40
2019-04-18T23:27:02.038Z,14.40
2019-04-18T23:29:36.929Z,14.40
2019-04-18T23:32:02.439Z,14.30
2019-04-18T23:34:35.648Z,14.20
2019-04-18T23:37:03.243Z,14.20
2019-04-18T23:39:38.648Z,14.20
2019-04-18T23:42:08.256Z,14.20
2019-04-18T23:44:37.102Z,14.10
2019-04-18T23:47:09.342Z,14.10
2019-04-18T23:49:38.685Z,14.10
2019-04-18T23:52:13.301Z,14.00
2019-04-18T23:54:39.825Z,14.00
2019-04-18T23:57:17.412Z,13.90
2019-04-18T23:59:45.097Z,13.90
